sensor_id;sensor_type;location;lat;lon;timestamp;pressure;altitude;pressure_sealevel;temperature;humidity
48216;BME280;34005;48.844;10.098;2022-07-18T00:01:15;97429.16;;;19.95;36.40
48216;BME280;34005;48.844;10.098;2022-07-18T00:03:43;97427.97;;;19.91;36.27
48216;BME280;34005;48.844;10.098;2022-07-18T00:06:11;97427.63;;;19.88;36.53
48216;BME280;34005;48.844;10.098;2022-07-18T00:08:38;97426.44;;;19.84;36.19
48216;BME280;34005;48.844;10.098;2022-07-18T00:11:06;97434.97;;;19.86;38.22
48216;BME280;34005;48.844;10.098;2022-07-18T00:13:35;97435.13;;;19.91;38.55
48216;BME280;34005;48.844;10.098;2022-07-18T00:16:03;97433.66;;;19.95;38.86
48216;BME280;34005;48.844;10.098;2022-07-18T00:18:30;97431.59;;;19.97;37.54
48216;BME280;34005;48.844;10.098;2022-07-18T00:20:58;97435.25;;;19.96;37.36
48216;BME280;34005;48.844;10.098;2022-07-18T00:23:26;97434.66;;;19.94;37.65
48216;BME280;34005;48.844;10.098;2022-07-18T00:25:53;97441.44;;;19.90;38.05
48216;BME280;34005;48.844;10.098;2022-07-18T00:28:21;97436.78;;;19.85;38.47
48216;BME280;34005;48.844;10.098;2022-07-18T00:30:50;97436.66;;;19.80;38.66
48216;BME280;34005;48.844;10.098;2022-07-18T00:33:18;97434.06;;;19.73;38.52
48216;BME280;34005;48.844;10.098;2022-07-18T00:35:47;97438.41;;;19.68;38.67
48216;BME280;34005;48.844;10.098;2022-07-18T00:38:14;97432.25;;;19.67;40.90
48216;BME280;34005;48.844;10.098;2022-07-18T00:40:42;97431.88;;;19.70;40.89
48216;BME280;34005;48.844;10.098;2022-07-18T00:43:12;97439.19;;;19.68;39.63
48216;BME280;34005;48.844;10.098;2022-07-18T00:45:39;97432.94;;;19.63;39.03
48216;BME280;34005;48.844;10.098;2022-07-18T00:48:12;97436.69;;;19.55;39.17
48216;BME280;34005;48.844;10.098;2022-07-18T00:50:42;97434.91;;;19.49;39.30
48216;BME280;34005;48.844;10.098;2022-07-18T00:53:10;97438.63;;;19.41;40.03
48216;BME280;34005;48.844;10.098;2022-07-18T00:55:40;97434.38;;;19.40;39.84
48216;BME280;34005;48.844;10.098;2022-07-18T00:58:08;97429.75;;;19.35;39.33
48216;BME280;34005;48.844;10.098;2022-07-18T01:00:37;97431.03;;;19.26;39.33
48216;BME280;34005;48.844;10.098;2022-07-18T01:03:24;97435.78;;;19.18;39.12
48216;BME280;34005;48.844;10.098;2022-07-18T01:05:51;97443.34;;;19.14;39.24
48216;BME280;34005;48.844;10.098;2022-07-18T01:08:19;97440.50;;;19.16;39.18
48216;BME280;34005;48.844;10.098;2022-07-18T01:10:47;97430.25;;;19.19;41.07
48216;BME280;34005;48.844;10.098;2022-07-18T01:13:14;97433.94;;;19.18;39.53
48216;BME280;34005;48.844;10.098;2022-07-18T01:15:42;97428.72;;;19.11;39.50
48216;BME280;34005;48.844;10.098;2022-07-18T01:18:10;97437.72;;;19.04;39.43
48216;BME280;34005;48.844;10.098;2022-07-18T02:30:51;97429.03;;;18.20;45.64
48216;BME280;34005;48.844;10.098;2022-07-18T02:33:19;97428.44;;;18.18;44.17
48216;BME280;34005;48.844;10.098;2022-07-18T02:35:48;97426.63;;;18.11;43.05
48216;BME280;34005;48.844;10.098;2022-07-18T02:38:15;97420.78;;;18.03;42.10
48216;BME280;34005;48.844;10.098;2022-07-18T02:40:49;97425.03;;;17.97;42.44
48216;BME280;34005;48.844;10.098;2022-07-18T02:43:17;97426.50;;;17.93;41.92
48216;BME280;34005;48.844;10.098;2022-07-18T04:16:25;97439.09;;;17.78;45.80
48216;BME280;34005;48.844;10.098;2022-07-18T04:18:53;97438.50;;;17.82;44.61
48216;BME280;34005;48.844;10.098;2022-07-18T04:21:20;97443.38;;;17.85;45.73
48216;BME280;34005;48.844;10.098;2022-07-18T04:23:48;97445.56;;;17.88;47.04
48216;BME280;34005;48.844;10.098;2022-07-18T04:26:16;97443.34;;;17.92;46.46
48216;BME280;34005;48.844;10.098;2022-07-18T04:28:43;97439.09;;;17.91;45.90
48216;BME280;34005;48.844;10.098;2022-07-18T05:20:47;97435.22;;;18.00;41.37
48216;BME280;34005;48.844;10.098;2022-07-18T05:23:15;97432.13;;;18.03;41.13
48216;BME280;34005;48.844;10.098;2022-07-18T05:25:42;97430.09;;;18.05;40.62
48216;BME280;34005;48.844;10.098;2022-07-18T05:28:10;97431.75;;;18.06;40.30
48216;BME280;34005;48.844;10.098;2022-07-18T05:30:38;97437.63;;;18.08;40.44
48216;BME280;34005;48.844;10.098;2022-07-18T05:33:05;97434.56;;;18.11;40.67
48216;BME280;34005;48.844;10.098;2022-07-18T05:35:33;97433.91;;;18.16;39.98
48216;BME280;34005;48.844;10.098;2022-07-18T05:38:03;97439.59;;;18.20;39.96
48216;BME280;34005;48.844;10.098;2022-07-18T05:40:31;97434.50;;;18.25;40.08
48216;BME280;34005;48.844;10.098;2022-07-18T05:42:58;97436.31;;;18.31;39.94
48216;BME280;34005;48.844;10.098;2022-07-18T05:45:26;97436.47;;;18.36;40.71
48216;BME280;34005;48.844;10.098;2022-07-18T05:47:54;97438.88;;;18.44;42.48
48216;BME280;34005;48.844;10.098;2022-07-18T05:50:23;97438.03;;;18.50;40.33
48216;BME280;34005;48.844;10.098;2022-07-18T05:52:51;97435.56;;;18.56;41.71
48216;BME280;34005;48.844;10.098;2022-07-18T05:55:20;97442.66;;;18.62;40.95
48216;BME280;34005;48.844;10.098;2022-07-18T05:57:48;97438.13;;;18.69;42.84
48216;BME280;34005;48.844;10.098;2022-07-18T06:00:18;97438.91;;;18.76;43.26
48216;BME280;34005;48.844;10.098;2022-07-18T06:02:47;97435.00;;;18.85;43.65
48216;BME280;34005;48.844;10.098;2022-07-18T06:05:15;97436.56;;;18.93;43.91
48216;BME280;34005;48.844;10.098;2022-07-18T06:07:49;97432.47;;;18.97;42.91
48216;BME280;34005;48.844;10.098;2022-07-18T06:10:17;97438.50;;;19.04;43.83
48216;BME280;34005;48.844;10.098;2022-07-18T06:12:46;97436.84;;;19.10;43.60
48216;BME280;34005;48.844;10.098;2022-07-18T06:15:14;97429.91;;;19.16;43.62
48216;BME280;34005;48.844;10.098;2022-07-18T06:17:42;97436.16;;;19.21;44.17
48216;BME280;34005;48.844;10.098;2022-07-18T06:20:10;97438.53;;;19.29;44.37
48216;BME280;34005;48.844;10.098;2022-07-18T06:22:38;97430.97;;;19.33;42.51
48216;BME280;34005;48.844;10.098;2022-07-18T06:25:07;97428.69;;;19.37;41.71
48216;BME280;34005;48.844;10.098;2022-07-18T06:27:35;97423.59;;;19.42;41.32
48216;BME280;34005;48.844;10.098;2022-07-18T06:30:05;97422.69;;;19.48;40.76
48216;BME280;34005;48.844;10.098;2022-07-18T06:32:33;97421.81;;;19.54;40.79
48216;BME280;34005;48.844;10.098;2022-07-18T06:35:02;97427.84;;;19.61;41.00
48216;BME280;34005;48.844;10.098;2022-07-18T06:37:29;97429.41;;;19.69;42.26
48216;BME280;34005;48.844;10.098;2022-07-18T06:39:57;97433.41;;;19.78;42.90
48216;BME280;34005;48.844;10.098;2022-07-18T06:42:28;97423.34;;;19.87;43.87
48216;BME280;34005;48.844;10.098;2022-07-18T06:44:56;97423.06;;;19.95;43.97
48216;BME280;34005;48.844;10.098;2022-07-18T06:47:25;97417.47;;;20.03;44.41
48216;BME280;34005;48.844;10.098;2022-07-18T06:49:53;97419.78;;;20.11;44.21
48216;BME280;34005;48.844;10.098;2022-07-18T06:52:21;97416.84;;;20.20;43.81
48216;BME280;34005;48.844;10.098;2022-07-18T06:54:48;97420.78;;;20.29;43.47
48216;BME280;34005;48.844;10.098;2022-07-18T06:57:16;97427.44;;;20.38;42.78
48216;BME280;34005;48.844;10.098;2022-07-18T06:59:46;97431.38;;;20.47;42.86
48216;BME280;34005;48.844;10.098;2022-07-18T07:02:20;97427.59;;;20.55;42.31
48216;BME280;34005;48.844;10.098;2022-07-18T07:04:49;97415.69;;;20.64;41.92
48216;BME280;34005;48.844;10.098;2022-07-18T07:07:17;97417.19;;;20.72;41.76
48216;BME280;34005;48.844;10.098;2022-07-18T07:09:45;97419.53;;;20.80;41.74
48216;BME280;34005;48.844;10.098;2022-07-18T07:12:13;97412.84;;;20.89;41.52
48216;BME280;34005;48.844;10.098;2022-07-18T07:14:43;97413.09;;;20.99;41.77
48216;BME280;34005;48.844;10.098;2022-07-18T07:17:11;97418.63;;;21.10;41.29
48216;BME280;34005;48.844;10.098;2022-07-18T07:19:39;97418.88;;;21.20;40.83
48216;BME280;34005;48.844;10.098;2022-07-18T07:22:08;97419.13;;;21.30;40.42
48216;BME280;34005;48.844;10.098;2022-07-18T07:24:36;97419.16;;;21.42;40.41
48216;BME280;34005;48.844;10.098;2022-07-18T07:27:06;97408.19;;;21.50;39.62
48216;BME280;34005;48.844;10.098;2022-07-18T07:29:34;97410.03;;;21.62;39.37
48216;BME280;34005;48.844;10.098;2022-07-18T07:32:02;97404.94;;;21.72;39.15
48216;BME280;34005;48.844;10.098;2022-07-18T07:34:30;97410.22;;;21.84;39.11
48216;BME280;34005;48.844;10.098;2022-07-18T07:36:58;97411.25;;;21.94;38.63
48216;BME280;34005;48.844;10.098;2022-07-18T07:39:27;97414.69;;;22.07;38.96
48216;BME280;34005;48.844;10.098;2022-07-18T07:41:55;97406.69;;;22.18;38.77
48216;BME280;34005;48.844;10.098;2022-07-18T07:44:30;97402.16;;;22.31;38.74
48216;BME280;34005;48.844;10.098;2022-07-18T07:46:57;97402.09;;;22.42;38.81
48216;BME280;34005;48.844;10.098;2022-07-18T07:49:25;97407.41;;;22.54;38.88
48216;BME280;34005;48.844;10.098;2022-07-18T07:51:54;97394.81;;;22.67;37.99
48216;BME280;34005;48.844;10.098;2022-07-18T07:54:22;97393.72;;;22.79;37.89
48216;BME280;34005;48.844;10.098;2022-07-18T07:56:51;97389.94;;;22.92;38.31
48216;BME280;34005;48.844;10.098;2022-07-18T07:59:19;97393.09;;;23.06;37.68
48216;BME280;34005;48.844;10.098;2022-07-18T08:01:47;97401.31;;;23.21;37.36
48216;BME280;34005;48.844;10.098;2022-07-18T08:04:15;97395.66;;;23.35;37.20
48216;BME280;34005;48.844;10.098;2022-07-18T08:06:43;97399.03;;;23.47;36.62
48216;BME280;34005;48.844;10.098;2022-07-18T08:09:11;97390.94;;;23.59;36.49
48216;BME280;34005;48.844;10.098;2022-07-18T08:11:40;97397.53;;;23.73;36.30
48216;BME280;34005;48.844;10.098;2022-07-18T08:14:09;97397.75;;;23.89;35.81
48216;BME280;34005;48.844;10.098;2022-07-18T08:16:37;97402.72;;;24.02;35.68
48216;BME280;34005;48.844;10.098;2022-07-18T08:19:05;97394.34;;;24.15;34.84
48216;BME280;34005;48.844;10.098;2022-07-18T08:21:33;97392.34;;;24.27;34.53
48216;BME280;34005;48.844;10.098;2022-07-18T08:24:00;97396.22;;;24.42;34.06
48216;BME280;34005;48.844;10.098;2022-07-18T08:26:31;97397.72;;;24.55;33.71
48216;BME280;34005;48.844;10.098;2022-07-18T08:29:00;97396.50;;;24.67;33.47
48216;BME280;34005;48.844;10.098;2022-07-18T08:31:29;97399.28;;;24.78;31.95
48216;BME280;34005;48.844;10.098;2022-07-18T08:33:58;97399.34;;;24.88;30.67
48216;BME280;34005;48.844;10.098;2022-07-18T08:36:25;97391.44;;;24.98;30.67
48216;BME280;34005;48.844;10.098;2022-07-18T08:38:53;97395.53;;;25.11;29.61
48216;BME280;34005;48.844;10.098;2022-07-18T08:41:22;97399.66;;;25.24;29.29
48216;BME280;34005;48.844;10.098;2022-07-18T08:43:50;97404.56;;;25.37;29.40
48216;BME280;34005;48.844;10.098;2022-07-18T08:46:19;97400.88;;;25.48;29.22
48216;BME280;34005;48.844;10.098;2022-07-18T08:48:50;97398.81;;;25.61;29.65
48216;BME280;34005;48.844;10.098;2022-07-18T08:51:19;97391.38;;;25.73;29.22
48216;BME280;34005;48.844;10.098;2022-07-18T08:53:49;97389.84;;;25.82;28.51
48216;BME280;34005;48.844;10.098;2022-07-18T08:56:18;97392.56;;;25.93;28.32
48216;BME280;34005;48.844;10.098;2022-07-18T08:58:46;97380.31;;;26.02;28.12
48216;BME280;34005;48.844;10.098;2022-07-18T09:01:16;97388.38;;;26.12;27.80
48216;BME280;34005;48.844;10.098;2022-07-18T09:03:44;97390.53;;;26.20;27.97
48216;BME280;34005;48.844;10.098;2022-07-18T09:06:43;97384.16;;;26.31;28.35
48216;BME280;34005;48.844;10.098;2022-07-18T09:09:12;97388.72;;;26.41;27.62
48216;BME280;34005;48.844;10.098;2022-07-18T09:11:51;97383.13;;;26.53;27.30
48216;BME280;34005;48.844;10.098;2022-07-18T09:14:34;97386.38;;;26.65;27.11
48216;BME280;34005;48.844;10.098;2022-07-18T09:17:07;97390.41;;;26.78;26.69
48216;BME280;34005;48.844;10.098;2022-07-18T09:19:35;97386.94;;;26.88;26.13
48216;BME280;34005;48.844;10.098;2022-07-18T09:22:16;97386.13;;;26.98;26.38
48216;BME280;34005;48.844;10.098;2022-07-18T09:24:53;97388.00;;;27.07;25.73
48216;BME280;34005;48.844;10.098;2022-07-18T09:27:27;97391.75;;;27.17;26.41
48216;BME280;34005;48.844;10.098;2022-07-18T09:30:20;97385.31;;;27.28;26.80
48216;BME280;34005;48.844;10.098;2022-07-18T09:32:49;97388.53;;;27.35;26.38
48216;BME280;34005;48.844;10.098;2022-07-18T09:35:21;97381.56;;;27.44;26.12
48216;BME280;34005;48.844;10.098;2022-07-18T09:37:59;97377.50;;;27.52;25.46
48216;BME280;34005;48.844;10.098;2022-07-18T09:40:29;97380.44;;;27.61;26.52
48216;BME280;34005;48.844;10.098;2022-07-18T09:43:00;97380.94;;;27.68;26.22
48216;BME280;34005;48.844;10.098;2022-07-18T09:45:30;97374.50;;;27.74;25.41
48216;BME280;34005;48.844;10.098;2022-07-18T09:48:00;97381.97;;;27.82;25.92
48216;BME280;34005;48.844;10.098;2022-07-18T09:50:31;97380.91;;;27.88;25.92
48216;BME280;34005;48.844;10.098;2022-07-18T09:53:03;97378.72;;;27.96;25.12
48216;BME280;34005;48.844;10.098;2022-07-18T09:55:52;97380.31;;;28.02;25.81
48216;BME280;34005;48.844;10.098;2022-07-18T09:58:21;97379.22;;;28.08;25.24
48216;BME280;34005;48.844;10.098;2022-07-18T10:00:51;97378.09;;;28.14;25.88
48216;BME280;34005;48.844;10.098;2022-07-18T10:03:21;97381.28;;;28.21;24.87
48216;BME280;34005;48.844;10.098;2022-07-18T10:05:51;97381.00;;;28.28;25.30
48216;BME280;34005;48.844;10.098;2022-07-18T10:08:23;97381.75;;;28.33;25.74
48216;BME280;34005;48.844;10.098;2022-07-18T10:10:53;97379.03;;;28.39;24.97
48216;BME280;34005;48.844;10.098;2022-07-18T10:13:23;97378.75;;;28.45;24.99
48216;BME280;34005;48.844;10.098;2022-07-18T10:15:51;97378.44;;;28.52;25.08
48216;BME280;34005;48.844;10.098;2022-07-18T10:18:21;97371.97;;;28.58;24.72
48216;BME280;34005;48.844;10.098;2022-07-18T10:20:52;97374.63;;;28.63;25.20
48216;BME280;34005;48.844;10.098;2022-07-18T10:23:25;97368.69;;;28.66;26.37
48216;BME280;34005;48.844;10.098;2022-07-18T10:26:07;97367.56;;;28.72;24.94
48216;BME280;34005;48.844;10.098;2022-07-18T10:31:40;97363.16;;;28.87;24.57
48216;BME280;34005;48.844;10.098;2022-07-18T10:34:29;97370.59;;;28.95;24.46
48216;BME280;34005;48.844;10.098;2022-07-18T10:37:09;97364.63;;;29.03;24.44
48216;BME280;34005;48.844;10.098;2022-07-18T10:39:41;97362.72;;;29.09;24.16
48216;BME280;34005;48.844;10.098;2022-07-18T10:42:16;97358.91;;;29.15;24.10
48216;BME280;34005;48.844;10.098;2022-07-18T10:44:45;97358.59;;;29.22;24.28
48216;BME280;34005;48.844;10.098;2022-07-18T10:47:15;97362.78;;;29.28;23.45
48216;BME280;34005;48.844;10.098;2022-07-18T10:50:08;97358.19;;;29.33;24.04
48216;BME280;34005;48.844;10.098;2022-07-18T10:52:58;97366.50;;;29.37;23.55
48216;BME280;34005;48.844;10.098;2022-07-18T10:55:32;97365.91;;;29.40;23.08
48216;BME280;34005;48.844;10.098;2022-07-18T10:58:21;97360.78;;;29.44;22.94
48216;BME280;34005;48.844;10.098;2022-07-18T11:01:02;97362.09;;;29.46;23.26
48216;BME280;34005;48.844;10.098;2022-07-18T11:03:34;97350.75;;;29.49;22.69
48216;BME280;34005;48.844;10.098;2022-07-18T11:06:02;97345.63;;;29.53;23.13
48216;BME280;34005;48.844;10.098;2022-07-18T11:08:31;97348.53;;;29.56;23.98
48216;BME280;34005;48.844;10.098;2022-07-18T11:11:12;97347.69;;;29.61;23.20
48216;BME280;34005;48.844;10.098;2022-07-18T11:13:45;97347.59;;;29.66;23.64
48216;BME280;34005;48.844;10.098;2022-07-18T11:16:20;97346.78;;;29.71;23.49
48216;BME280;34005;48.844;10.098;2022-07-18T11:19:16;97349.97;;;29.73;23.70
48216;BME280;34005;48.844;10.098;2022-07-18T11:21:58;97338.66;;;29.76;22.89
48216;BME280;34005;48.844;10.098;2022-07-18T11:24:27;97341.56;;;29.80;23.56
48216;BME280;34005;48.844;10.098;2022-07-18T11:26:57;97343.91;;;29.86;23.03
48216;BME280;34005;48.844;10.098;2022-07-18T11:29:25;97344.91;;;29.90;23.19
48216;BME280;34005;48.844;10.098;2022-07-18T11:31:57;97337.88;;;29.94;22.94
48216;BME280;34005;48.844;10.098;2022-07-18T15:53:24;97182.66;;;30.47;29.42
48216;BME280;34005;48.844;10.098;2022-07-18T15:55:52;97173.25;;;30.30;27.97
48216;BME280;34005;48.844;10.098;2022-07-18T16:01:02;97170.09;;;30.09;23.01
48216;BME280;34005;48.844;10.098;2022-07-18T16:04:04;97161.22;;;30.09;22.85
48216;BME280;34005;48.844;10.098;2022-07-18T16:06:47;97160.13;;;30.10;22.67
48216;BME280;34005;48.844;10.098;2022-07-18T16:59:02;97121.97;;;30.22;22.54
48216;BME280;34005;48.844;10.098;2022-07-18T17:01:30;97127.66;;;30.20;22.87
48216;BME280;34005;48.844;10.098;2022-07-18T17:03:58;97120.38;;;30.21;22.95
48216;BME280;34005;48.844;10.098;2022-07-18T17:06:26;97120.66;;;30.19;22.78
48216;BME280;34005;48.844;10.098;2022-07-18T17:08:53;97122.28;;;30.20;23.25
48216;BME280;34005;48.844;10.098;2022-07-18T17:11:23;97117.19;;;30.18;22.96
48216;BME280;34005;48.844;10.098;2022-07-18T17:13:51;97120.66;;;30.19;22.83
48216;BME280;34005;48.844;10.098;2022-07-18T17:16:21;97117.19;;;30.18;22.81
48216;BME280;34005;48.844;10.098;2022-07-18T17:18:49;97122.28;;;30.20;22.77
48216;BME280;34005;48.844;10.098;2022-07-18T17:21:17;97113.09;;;30.21;22.73
48216;BME280;34005;48.844;10.098;2022-07-18T17:23:47;97113.09;;;30.21;22.08
48216;BME280;34005;48.844;10.098;2022-07-18T17:26:21;97108.22;;;30.23;22.07
48216;BME280;34005;48.844;10.098;2022-07-18T17:28:49;97105.81;;;30.22;22.12
48216;BME280;34005;48.844;10.098;2022-07-18T17:31:18;97117.41;;;30.22;22.56
48216;BME280;34005;48.844;10.098;2022-07-18T17:33:47;97112.03;;;30.22;22.21
48216;BME280;34005;48.844;10.098;2022-07-18T17:36:15;97113.59;;;30.23;22.67
48216;BME280;34005;48.844;10.098;2022-07-18T17:38:44;97111.41;;;30.25;22.52
48216;BME280;34005;48.844;10.098;2022-07-18T17:41:13;97105.53;;;30.23;22.37
48216;BME280;34005;48.844;10.098;2022-07-18T17:43:41;97105.03;;;30.21;22.75
48216;BME280;34005;48.844;10.098;2022-07-18T17:46:12;97105.03;;;30.21;22.13
48216;BME280;34005;48.844;10.098;2022-07-18T17:48:40;97101.84;;;30.19;22.32
48216;BME280;34005;48.844;10.098;2022-07-18T17:51:10;97105.63;;;30.18;22.66
48216;BME280;34005;48.844;10.098;2022-07-18T17:53:38;97102.44;;;30.16;22.66
48216;BME280;34005;48.844;10.098;2022-07-18T17:56:06;97101.66;;;30.15;22.59
48216;BME280;34005;48.844;10.098;2022-07-18T17:58:35;97102.44;;;30.16;22.84
48216;BME280;34005;48.844;10.098;2022-07-18T18:01:02;97105.69;;;30.13;23.56
48216;BME280;34005;48.844;10.098;2022-07-18T18:03:30;97106.03;;;30.11;23.92
48216;BME280;34005;48.844;10.098;2022-07-18T18:05:58;97106.59;;;30.08;24.32
48216;BME280;34005;48.844;10.098;2022-07-18T18:08:27;97106.41;;;30.05;24.42
48216;BME280;34005;48.844;10.098;2022-07-18T18:10:55;97108.59;;;30.03;25.03
48216;BME280;34005;48.844;10.098;2022-07-18T18:13:22;97106.47;;;29.99;25.12
48216;BME280;34005;48.844;10.098;2022-07-18T18:15:50;97108.16;;;29.95;25.77
48216;BME280;34005;48.844;10.098;2022-07-18T18:18:18;97105.28;;;29.92;26.00
48216;BME280;34005;48.844;10.098;2022-07-18T18:20:45;97101.56;;;29.88;25.85
48216;BME280;34005;48.844;10.098;2022-07-18T18:23:13;97103.53;;;29.82;25.78
48216;BME280;34005;48.844;10.098;2022-07-18T18:25:42;97107.91;;;29.78;25.89
48216;BME280;34005;48.844;10.098;2022-07-18T18:28:10;97107.69;;;29.74;25.68
48216;BME280;34005;48.844;10.098;2022-07-18T18:30:37;97115.03;;;29.69;25.68
48216;BME280;34005;48.844;10.098;2022-07-18T18:33:07;97119.38;;;29.65;25.74
48216;BME280;34005;48.844;10.098;2022-07-18T18:35:35;97110.59;;;29.59;26.07
48216;BME280;34005;48.844;10.098;2022-07-18T18:38:02;97109.59;;;29.55;26.44
48216;BME280;34005;48.844;10.098;2022-07-18T18:40:30;97122.28;;;29.49;26.44
48216;BME280;34005;48.844;10.098;2022-07-18T18:43:00;97130.44;;;29.44;26.71
48216;BME280;34005;48.844;10.098;2022-07-18T18:45:28;97130.50;;;29.39;26.59
48216;BME280;34005;48.844;10.098;2022-07-18T18:47:56;97129.78;;;29.33;26.51
48216;BME280;34005;48.844;10.098;2022-07-18T18:50:23;97133.34;;;29.29;26.16
48216;BME280;34005;48.844;10.098;2022-07-18T18:52:51;97131.53;;;29.24;26.32
48216;BME280;34005;48.844;10.098;2022-07-18T18:55:24;97129.72;;;29.20;26.29
48216;BME280;34005;48.844;10.098;2022-07-18T18:57:52;97130.25;;;29.16;26.42
48216;BME280;34005;48.844;10.098;2022-07-18T19:00:21;97133.81;;;29.12;26.72
48216;BME280;34005;48.844;10.098;2022-07-18T19:02:50;97134.41;;;29.09;27.05
48216;BME280;34005;48.844;10.098;2022-07-18T19:05:20;97132.06;;;29.02;27.22
48216;BME280;34005;48.844;10.098;2022-07-18T19:07:47;97132.41;;;28.95;27.81
48216;BME280;34005;48.844;10.098;2022-07-18T19:10:16;97136.22;;;28.89;28.00
48216;BME280;34005;48.844;10.098;2022-07-18T19:12:46;97128.81;;;28.81;28.25
48216;BME280;34005;48.844;10.098;2022-07-18T19:15:13;97131.03;;;28.74;28.71
48216;BME280;34005;48.844;10.098;2022-07-18T19:17:43;97135.97;;;28.67;28.76
48216;BME280;34005;48.844;10.098;2022-07-18T19:20:11;97133.91;;;28.59;28.45
48216;BME280;34005;48.844;10.098;2022-07-18T19:22:39;97132.63;;;28.51;28.50
48216;BME280;34005;48.844;10.098;2022-07-18T19:25:07;97134.81;;;28.44;28.76
48216;BME280;34005;48.844;10.098;2022-07-18T19:27:37;97139.41;;;28.38;28.47
48216;BME280;34005;48.844;10.098;2022-07-18T19:30:05;97133.06;;;28.29;28.37
48216;BME280;34005;48.844;10.098;2022-07-18T19:32:33;97146.03;;;28.22;28.51
48216;BME280;34005;48.844;10.098;2022-07-18T19:35:02;97143.69;;;28.15;28.84
48216;BME280;34005;48.844;10.098;2022-07-18T19:37:30;97155.00;;;28.07;29.10
48216;BME280;34005;48.844;10.098;2022-07-18T19:39:58;97146.25;;;27.96;29.69
48216;BME280;34005;48.844;10.098;2022-07-18T19:42:26;97148.72;;;27.87;29.55
48216;BME280;34005;48.844;10.098;2022-07-18T19:44:53;97148.47;;;27.79;30.06
48216;BME280;34005;48.844;10.098;2022-07-18T19:47:21;97154.22;;;27.67;30.40
48216;BME280;34005;48.844;10.098;2022-07-18T19:49:49;97157.25;;;27.55;30.58
48216;BME280;34005;48.844;10.098;2022-07-18T19:52:18;97158.09;;;27.45;30.39
48216;BME280;34005;48.844;10.098;2022-07-18T19:54:45;97159.75;;;27.36;30.72
48216;BME280;34005;48.844;10.098;2022-07-18T19:57:13;97159.25;;;27.29;30.61
48216;BME280;34005;48.844;10.098;2022-07-18T19:59:41;97157.13;;;27.21;31.07
48216;BME280;34005;48.844;10.098;2022-07-18T20:02:08;97161.41;;;27.17;30.95
48216;BME280;34005;48.844;10.098;2022-07-18T20:04:36;97163.03;;;27.12;30.80
48216;BME280;34005;48.844;10.098;2022-07-18T20:07:04;97163.88;;;27.08;31.08
48216;BME280;34005;48.844;10.098;2022-07-18T20:09:36;97157.19;;;27.00;31.00
48216;BME280;34005;48.844;10.098;2022-07-18T20:12:04;97154.81;;;26.93;31.20
48216;BME280;34005;48.844;10.098;2022-07-18T20:14:32;97150.84;;;26.86;31.10
48216;BME280;34005;48.844;10.098;2022-07-18T20:16:59;97155.16;;;26.77;31.08
48216;BME280;34005;48.844;10.098;2022-07-18T20:19:27;97158.38;;;26.68;31.52
48216;BME280;34005;48.844;10.098;2022-07-18T20:21:55;97152.53;;;26.56;31.48
48216;BME280;34005;48.844;10.098;2022-07-18T20:24:23;97151.44;;;26.47;31.64
48216;BME280;34005;48.844;10.098;2022-07-18T20:26:52;97159.22;;;26.38;31.88
48216;BME280;34005;48.844;10.098;2022-07-18T20:29:20;97152.03;;;26.28;31.83
48216;BME280;34005;48.844;10.098;2022-07-18T20:31:48;97147.22;;;26.20;31.93
48216;BME280;34005;48.844;10.098;2022-07-18T20:34:16;97158.97;;;26.14;32.06
48216;BME280;34005;48.844;10.098;2022-07-18T20:36:43;97146.66;;;26.08;32.07
48216;BME280;34005;48.844;10.098;2022-07-18T20:39:11;97147.47;;;26.03;32.29
48216;BME280;34005;48.844;10.098;2022-07-18T20:41:38;97147.75;;;25.97;32.17
48216;BME280;34005;48.844;10.098;2022-07-18T20:44:07;97150.44;;;25.92;32.39
48216;BME280;34005;48.844;10.098;2022-07-18T20:46:35;97142.91;;;25.83;32.34
48216;BME280;34005;48.844;10.098;2022-07-18T20:49:03;97148.25;;;25.78;32.38
48216;BME280;34005;48.844;10.098;2022-07-18T20:51:30;97151.44;;;25.70;32.72
48216;BME280;34005;48.844;10.098;2022-07-18T20:54:05;97150.91;;;25.63;33.13
48216;BME280;34005;48.844;10.098;2022-07-18T20:56:33;97153.84;;;25.56;33.17
48216;BME280;34005;48.844;10.098;2022-07-18T20:59:00;97147.66;;;25.51;33.76
48216;BME280;34005;48.844;10.098;2022-07-18T21:01:29;97146.59;;;25.46;33.77
48216;BME280;34005;48.844;10.098;2022-07-18T21:03:58;97146.06;;;25.44;34.38
48216;BME280;34005;48.844;10.098;2022-07-18T21:06:25;97151.41;;;25.44;33.90
48216;BME280;34005;48.844;10.098;2022-07-18T21:08:53;97145.50;;;25.42;33.96
48216;BME280;34005;48.844;10.098;2022-07-18T21:11:20;97146.31;;;25.38;34.08
48216;BME280;34005;48.844;10.098;2022-07-18T21:13:48;97146.56;;;25.31;33.69
48216;BME280;34005;48.844;10.098;2022-07-18T21:16:16;97145.22;;;25.23;34.19
48216;BME280;34005;48.844;10.098;2022-07-18T21:18:45;97147.56;;;25.15;34.21
48216;BME280;34005;48.844;10.098;2022-07-18T21:21:12;97146.97;;;25.07;34.21
48216;BME280;34005;48.844;10.098;2022-07-18T21:23:40;97148.56;;;24.98;34.16
48216;BME280;34005;48.844;10.098;2022-07-18T21:26:08;97156.00;;;24.91;34.58
48216;BME280;34005;48.844;10.098;2022-07-18T21:28:36;97152.22;;;24.82;34.64
48216;BME280;34005;48.844;10.098;2022-07-18T21:31:04;97143.91;;;24.73;34.60
48216;BME280;34005;48.844;10.098;2022-07-18T21:33:31;97141.72;;;24.65;35.04
48216;BME280;34005;48.844;10.098;2022-07-18T21:36:00;97155.00;;;24.55;35.01
48216;BME280;34005;48.844;10.098;2022-07-18T21:38:28;97142.13;;;24.46;35.39
48216;BME280;34005;48.844;10.098;2022-07-18T21:40:55;97144.22;;;24.39;35.23
48216;BME280;34005;48.844;10.098;2022-07-18T21:43:23;97150.28;;;24.30;35.29
48216;BME280;34005;48.844;10.098;2022-07-18T21:45:50;97144.34;;;24.22;35.13
48216;BME280;34005;48.844;10.098;2022-07-18T21:48:21;97145.41;;;24.16;35.22